Time;durP1;ratioP1;P1;durP2;ratioP2;P2;SDS_P1;SDS_P2;PMS_P1;PMS_P2;Temp;Humidity;BMP_temperature;BMP_pressure;BME280_temperature;BME280_humidity;BME280_pressure;Samples;Min_cycle;Max_cycle;Signal;HPM_P1;HPM_P2
2023/04/11 00:00:38;;;;;;;2.67;1.73;;;14.40;50.00;;;;;;5028260;28;20479;-67
2023/04/11 00:03:05;;;;;;;2.57;2.00;;;14.40;50.50;;;;;;5038118;28;20471;-67
2023/04/11 00:05:33;;;;;;;1.70;1.60;;;14.50;50.00;;;;;;5048642;28;20477;-67
2023/04/11 00:08:00;;;;;;;4.23;2.50;;;14.50;50.20;;;;;;5029865;28;20506;-67
2023/04/11 00:10:27;;;;;;;2.77;1.60;;;14.50;50.30;;;;;;5028961;28;20480;-67
2023/04/11 00:12:55;;;;;;;2.80;1.97;;;14.50;50.80;;;;;;5028773;28;20454;-67
2023/04/11 00:15:23;;;;;;;3.00;2.07;;;14.50;50.80;;;;;;5028889;28;20452;-67
2023/04/11 00:17:52;;;;;;;2.07;1.47;;;14.40;51.50;;;;;;5048749;28;20898;-67
2023/04/11 00:20:19;;;;;;;1.80;1.53;;;14.40;50.60;;;;;;5048759;28;20514;-67
2023/04/11 00:22:47;;;;;;;2.77;2.00;;;14.40;50.60;;;;;;5044972;28;20468;-66
2023/04/11 00:25:14;;;;;;;1.60;1.50;;;14.40;51.50;;;;;;5036614;28;20455;-67
2023/04/11 00:27:41;;;;;;;1.97;1.53;;;14.30;52.00;;;;;;5047150;28;20491;-67
2023/04/11 00:30:08;;;;;;;3.63;2.33;;;14.30;51.00;;;;;;5049870;28;20477;-66
2023/04/11 00:32:35;;;;;;;2.93;1.80;;;14.40;51.30;;;;;;5048379;28;20968;-70
2023/04/11 00:35:02;;;;;;;1.73;1.63;;;14.40;51.30;;;;;;5049711;28;20450;-66
2023/04/11 00:37:30;;;;;;;1.90;1.57;;;14.50;50.90;;;;;;5048383;28;20487;-67
2023/04/11 00:39:58;;;;;;;2.40;1.73;;;14.50;50.60;;;;;;5048659;28;20470;-67
2023/04/11 00:42:25;;;;;;;2.50;1.33;;;14.50;50.90;;;;;;5049421;28;20984;-66
2023/04/11 00:44:52;;;;;;;4.37;1.80;;;14.50;50.90;;;;;;5050500;28;20470;-66
2023/04/11 00:47:19;;;;;;;2.43;1.80;;;14.60;50.60;;;;;;5051700;28;20451;-67
2023/04/11 00:49:46;;;;;;;3.83;1.93;;;14.60;50.50;;;;;;5051480;28;20527;-66
2023/04/11 00:52:12;;;;;;;11.67;2.00;;;14.60;50.20;;;;;;5051720;28;20444;-66
2023/04/11 00:54:39;;;;;;;1.70;1.53;;;14.70;51.50;;;;;;5051318;28;20450;-67
2023/04/11 00:57:08;;;;;;;3.43;2.10;;;14.60;52.20;;;;;;5051282;28;20483;-67
2023/04/11 00:59:35;;;;;;;2.60;1.30;;;14.40;52.20;;;;;;5050537;28;20469;-66
2023/04/11 01:02:02;;;;;;;2.33;1.30;;;14.40;52.10;;;;;;5051266;28;20483;-67
2023/04/11 01:04:29;;;;;;;2.30;1.43;;;14.40;52.10;;;;;;5051059;28;20483;-66
2023/04/11 01:07:02;;;;;;;1.67;1.40;;;14.50;51.70;;;;;;5050715;28;20444;-66
2023/04/11 01:09:31;;;;;;;3.00;1.50;;;14.60;51.80;;;;;;5051537;28;20471;-66
2023/04/11 01:12:00;;;;;;;1.60;1.50;;;14.60;51.80;;;;;;5051178;28;20442;-67
2023/04/11 01:14:28;;;;;;;1.47;1.37;;;14.70;51.20;;;;;;5051539;28;20554;-67
2023/04/11 01:16:56;;;;;;;3.20;1.60;;;14.70;51.00;;;;;;5050907;28;20548;-67
2023/04/11 01:19:25;;;;;;;2.70;2.47;;;14.70;51.50;;;;;;5050437;28;20948;-67
2023/04/11 01:21:54;;;;;;;1.53;1.23;;;14.70;51.00;;;;;;5050792;28;20442;-67
2023/04/11 01:24:22;;;;;;;3.57;1.67;;;14.70;51.20;;;;;;5051140;28;20452;-67
2023/04/11 01:26:49;;;;;;;5.30;1.80;;;14.60;53.40;;;;;;5052380;28;20437;-67
2023/04/11 01:29:16;;;;;;;2.40;1.70;;;14.20;55.90;;;;;;5052941;28;20439;-67
2023/04/11 01:31:43;;;;;;;2.10;1.60;;;13.90;56.40;;;;;;5054249;28;20469;-67
2023/04/11 01:34:12;;;;;;;3.00;2.07;;;13.80;57.30;;;;;;5053912;28;20493;-67
2023/04/11 01:36:39;;;;;;;4.37;1.70;;;13.70;57.60;;;;;;5055312;28;20517;-68
2023/04/11 01:39:06;;;;;;;2.30;2.10;;;13.50;61.50;;;;;;5054626;28;20979;-67
2023/04/11 01:41:36;;;;;;;2.77;1.97;;;13.00;68.90;;;;;;5052538;28;20981;-68
2023/04/11 01:44:03;;;;;;;2.10;1.90;;;12.70;69.90;;;;;;5051462;28;20453;-68
2023/04/11 01:46:30;;;;;;;10.77;2.00;;;12.50;72.00;;;;;;5050380;28;21225;-67
2023/04/11 01:48:57;;;;;;;1.83;1.63;;;12.40;73.70;;;;;;5051668;28;20444;-68
2023/04/11 01:51:24;;;;;;;6.63;2.10;;;12.30;75.00;;;;;;5052555;28;20980;-68
2023/04/11 01:53:51;;;;;;;1.90;1.70;;;12.20;77.00;;;;;;5052979;28;20456;-67
2023/04/11 01:56:17;;;;;;;2.83;1.97;;;12.30;75.60;;;;;;5051376;28;20453;-68
2023/04/11 01:58:46;;;;;;;2.70;2.17;;;12.20;76.20;;;;;;5051160;28;20578;-67
2023/04/11 02:01:13;;;;;;;2.00;1.80;;;12.30;77.10;;;;;;5051243;28;20478;-67
2023/04/11 02:03:40;;;;;;;3.33;2.30;;;12.20;77.50;;;;;;5051870;28;20450;-67
2023/04/11 02:06:07;;;;;;;3.10;2.80;;;12.10;81.00;;;;;;5052028;28;20476;-67
2023/04/11 02:08:34;;;;;;;2.97;2.60;;;11.90;84.50;;;;;;5052582;28;20466;-67
2023/04/11 02:11:01;;;;;;;3.50;3.03;;;11.70;87.50;;;;;;5052215;28;20471;-67
2023/04/11 02:13:27;;;;;;;3.10;2.40;;;11.50;90.50;;;;;;5051644;28;20975;-67
2023/04/11 02:15:56;;;;;;;2.63;2.43;;;11.20;91.20;;;;;;5050014;28;20448;-67
2023/04/11 02:18:22;;;;;;;4.27;2.50;;;11.00;92.30;;;;;;5034301;28;20482;-67
2023/04/11 02:20:50;;;;;;;4.67;2.53;;;10.80;92.40;;;;;;5032778;28;20485;-67
2023/04/11 02:23:16;;;;;;;2.70;2.40;;;10.70;93.10;;;;;;5051305;28;20450;-68
2023/04/11 02:25:43;;;;;;;2.70;2.50;;;10.60;93.70;;;;;;5054774;28;20543;-67
2023/04/11 02:28:10;;;;;;;2.50;1.90;;;10.50;94.40;;;;;;5055153;28;20950;-68
2023/04/11 02:30:37;;;;;;;4.60;2.10;;;10.40;94.50;;;;;;5051768;28;20466;-68
2023/04/11 02:33:05;;;;;;;3.07;2.30;;;10.30;94.80;;;;;;5055477;28;20463;-68
2023/04/11 02:35:32;;;;;;;3.43;2.73;;;10.30;95.00;;;;;;5057173;28;20448;-68
2023/04/11 02:37:59;;;;;;;3.67;1.97;;;10.30;95.70;;;;;;5057262;28;20483;-68
2023/04/11 02:40:26;;;;;;;3.30;2.10;;;10.20;95.60;;;;;;5057510;28;20464;-68
2023/04/11 02:42:52;;;;;;;1.93;1.83;;;10.20;95.80;;;;;;5056635;28;20457;-68
2023/04/11 02:45:19;;;;;;;3.60;1.90;;;10.10;96.10;;;;;;5056910;28;20452;-68
2023/04/11 02:47:46;;;;;;;2.63;1.70;;;10.10;96.10;;;;;;5056488;28;20448;-68
2023/04/11 02:50:14;;;;;;;3.83;1.70;;;10.10;96.40;;;;;;5057053;28;20476;-68
2023/04/11 02:52:43;;;;;;;1.87;1.40;;;10.00;96.70;;;;;;5056239;28;20448;-67
2023/04/11 02:55:10;;;;;;;3.10;2.10;;;10.00;97.00;;;;;;5057453;28;20451;-68
2023/04/11 02:57:38;;;;;;;2.53;1.57;;;10.00;97.10;;;;;;5056824;28;21187;-67
2023/04/11 03:00:07;;;;;;;1.50;1.40;;;10.00;97.60;;;;;;5059963;28;20986;-67
2023/04/11 03:02:34;;;;;;;2.27;1.37;;;9.90;97.80;;;;;;5054674;28;20529;-66
2023/04/11 03:05:02;;;;;;;1.50;1.13;;;9.90;98.00;;;;;;5055534;28;20455;-68
2023/04/11 03:07:31;;;;;;;3.43;1.60;;;9.90;97.30;;;;;;5055768;28;20822;-68
2023/04/11 03:09:58;;;;;;;1.83;1.33;;;9.90;97.50;;;;;;5060387;28;20891;-68
2023/04/11 03:12:25;;;;;;;2.20;1.27;;;9.90;97.60;;;;;;5059863;28;20452;-67
2023/04/11 03:14:52;;;;;;;2.20;1.70;;;9.80;97.60;;;;;;5059146;28;20449;-67
2023/04/11 03:17:18;;;;;;;3.37;1.47;;;9.80;97.10;;;;;;5059298;28;20494;-68
2023/04/11 03:19:45;;;;;;;1.70;1.27;;;9.80;97.20;;;;;;5059266;28;20554;-68
2023/04/11 03:22:12;;;;;;;1.23;1.13;;;9.70;97.40;;;;;;5058471;28;20463;-67
2023/04/11 03:24:40;;;;;;;3.37;1.50;;;9.70;97.30;;;;;;5057077;28;20455;-67
2023/04/11 03:27:07;;;;;;;3.63;1.43;;;9.60;97.10;;;;;;5057565;28;20455;-68
2023/04/11 03:29:34;;;;;;;3.90;1.33;;;9.60;97.50;;;;;;5057957;28;20453;-67
2023/04/11 03:32:00;;;;;;;1.40;1.00;;;9.70;97.60;;;;;;5057846;28;20452;-68
2023/04/11 03:34:27;;;;;;;1.73;1.53;;;9.60;97.00;;;;;;5058347;28;20444;-67
2023/04/11 03:36:54;;;;;;;4.03;2.20;;;9.60;97.10;;;;;;5060319;28;20527;-66
2023/04/11 03:39:21;;;;;;;5.50;1.43;;;9.50;96.30;;;;;;5060372;28;20487;-66
2023/04/11 03:41:49;;;;;;;1.63;1.20;;;9.40;95.90;;;;;;5060160;28;20444;-66
2023/04/11 03:44:16;;;;;;;4.30;1.20;;;9.30;96.60;;;;;;5059437;28;20455;-67
2023/04/11 03:46:43;;;;;;;1.83;1.20;;;9.30;96.50;;;;;;5057580;28;20474;-67
2023/04/11 03:49:10;;;;;;;3.00;1.77;;;9.20;96.20;;;;;;5058218;28;21113;-67
2023/04/11 03:51:37;;;;;;;3.03;1.30;;;9.20;96.60;;;;;;5055843;28;20464;-67
2023/04/11 03:54:04;;;;;;;3.30;1.00;;;9.10;95.40;;;;;;5057281;28;20450;-67
2023/04/11 03:56:31;;;;;;;4.50;1.77;;;9.00;96.50;;;;;;5056671;28;20450;-67
2023/04/11 03:58:59;;;;;;;1.33;0.90;;;8.90;96.20;;;;;;5056273;28;20570;-67
2023/04/11 04:01:26;;;;;;;3.43;1.17;;;8.90;96.80;;;;;;5056448;28;20471;-67
2023/04/11 04:03:53;;;;;;;2.57;1.10;;;8.90;96.90;;;;;;5055525;28;20444;-67
2023/04/11 04:06:20;;;;;;;6.17;1.20;;;8.90;97.10;;;;;;5055498;28;20459;-67
2023/04/11 04:08:47;;;;;;;5.00;1.40;;;8.90;96.60;;;;;;5057459;28;20456;-67
2023/04/11 04:11:13;;;;;;;2.33;1.00;;;8.90;96.50;;;;;;5059057;28;20477;-68
2023/04/11 04:13:40;;;;;;;4.67;1.70;;;8.90;96.70;;;;;;5059766;28;20451;-67
2023/04/11 04:16:09;;;;;;;7.10;1.47;;;8.90;97.10;;;;;;5057028;28;20439;-67
2023/04/11 04:18:36;;;;;;;3.03;1.50;;;8.90;97.00;;;;;;5055290;28;20885;-68
2023/04/11 04:21:03;;;;;;;4.67;1.57;;;8.80;97.20;;;;;;5054953;28;20464;-68
2023/04/11 04:23:31;;;;;;;2.47;1.70;;;8.80;97.10;;;;;;5054954;28;20467;-68
2023/04/11 04:26:00;;;;;;;2.80;1.13;;;8.80;97.30;;;;;;5051142;28;20456;-67
2023/04/11 04:28:27;;;;;;;6.83;1.63;;;8.80;97.30;;;;;;5055031;28;20440;-68
2023/04/11 04:30:56;;;;;;;1.83;1.33;;;8.80;97.60;;;;;;5054424;28;21012;-68
2023/04/11 04:33:24;;;;;;;3.47;1.53;;;8.80;97.60;;;;;;5049519;28;20460;-67
2023/04/11 04:35:56;;;;;;;4.10;1.47;;;8.80;97.40;;;;;;5045794;28;20453;-67
2023/04/11 04:38:24;;;;;;;4.10;1.30;;;8.80;97.50;;;;;;5056145;28;20484;-68
2023/04/11 04:40:53;;;;;;;4.73;1.97;;;8.80;97.70;;;;;;5055191;28;20563;-68
2023/04/11 04:43:23;;;;;;;5.57;1.40;;;8.80;97.40;;;;;;5053672;28;20458;-68
2023/04/11 04:45:50;;;;;;;3.23;1.70;;;8.80;97.30;;;;;;5054426;28;20960;-68
2023/04/11 04:48:17;;;;;;;2.30;1.20;;;8.80;97.10;;;;;;5053744;28;21208;-67
2023/04/11 04:50:45;;;;;;;5.83;1.83;;;8.80;96.90;;;;;;5055245;28;20479;-68
2023/04/11 04:53:12;;;;;;;1.70;1.60;;;8.80;96.60;;;;;;5054841;28;20512;-68
2023/04/11 04:55:38;;;;;;;2.83;1.30;;;8.90;96.20;;;;;;5055822;28;20455;-68
2023/04/11 04:58:05;;;;;;;1.10;1.00;;;8.90;96.10;;;;;;5053764;28;20492;-68
2023/04/11 05:00:33;;;;;;;2.40;1.00;;;8.90;96.00;;;;;;5054359;28;20855;-68
2023/04/11 05:03:04;;;;;;;3.33;0.90;;;8.90;95.30;;;;;;5053947;28;20451;-67
2023/04/11 05:05:31;;;;;;;3.07;1.27;;;8.80;95.80;;;;;;5034810;28;20484;-68
2023/04/11 05:07:59;;;;;;;1.57;1.00;;;8.80;95.80;;;;;;5034638;28;20440;-68
2023/04/11 05:10:26;;;;;;;2.63;0.90;;;8.70;95.00;;;;;;5033998;28;20464;-69
2023/04/11 05:12:54;;;;;;;4.67;0.80;;;8.70;94.70;;;;;;5033177;28;20447;-68
2023/04/11 05:15:22;;;;;;;2.67;0.90;;;8.60;94.60;;;;;;5034697;28;20523;-67
2023/04/11 05:17:49;;;;;;;3.80;0.80;;;8.50;94.50;;;;;;5038733;28;20754;-67
2023/04/11 05:20:16;;;;;;;3.93;0.90;;;8.40;94.10;;;;;;5034978;28;20653;-68
2023/04/11 05:22:43;;;;;;;1.57;0.83;;;8.30;94.50;;;;;;5033367;28;20447;-67
2023/04/11 05:25:11;;;;;;;2.00;0.80;;;8.20;94.60;;;;;;5043305;28;20513;-67
2023/04/11 05:27:38;;;;;;;1.90;0.90;;;8.20;94.20;;;;;;5050627;28;20448;-68
2023/04/11 05:30:06;;;;;;;3.93;0.90;;;8.10;93.70;;;;;;5051122;28;21025;-68
2023/04/11 05:32:33;;;;;;;1.93;0.70;;;8.00;94.00;;;;;;5053553;28;20540;-67
2023/04/11 05:35:00;;;;;;;1.93;0.80;;;8.00;93.90;;;;;;5045949;28;20908;-68
2023/04/11 05:37:26;;;;;;;1.10;0.73;;;8.00;93.20;;;;;;5047068;28;20503;-67
2023/04/11 05:39:55;;;;;;;2.20;1.00;;;7.90;93.70;;;;;;5039435;28;20741;-68
2023/04/11 05:42:23;;;;;;;1.20;0.60;;;7.90;93.50;;;;;;5041725;28;20449;-67
2023/04/11 05:44:50;;;;;;;1.20;0.73;;;7.80;93.00;;;;;;5033944;28;20498;-68
2023/04/11 05:47:16;;;;;;;3.73;0.83;;;7.80;93.90;;;;;;5048710;28;20497;-68
2023/04/11 05:49:43;;;;;;;3.03;1.07;;;7.80;93.30;;;;;;5051433;28;20545;-68
2023/04/11 05:52:10;;;;;;;1.97;0.87;;;7.80;93.90;;;;;;5050170;28;20452;-67
2023/04/11 05:54:37;;;;;;;2.33;1.30;;;7.90;93.20;;;;;;5039591;28;20449;-68
2023/04/11 05:57:06;;;;;;;2.67;1.07;;;7.90;93.50;;;;;;5051421;28;20455;-68
2023/04/11 05:59:35;;;;;;;1.97;1.07;;;7.90;94.00;;;;;;5049953;28;20476;-68
2023/04/11 06:02:02;;;;;;;6.60;1.00;;;7.90;93.90;;;;;;5054879;28;20468;-68
2023/04/11 06:04:29;;;;;;;1.60;0.87;;;8.00;93.10;;;;;;5047850;28;20464;-68
2023/04/11 06:06:56;;;;;;;1.40;1.10;;;8.00;92.80;;;;;;5053822;28;20557;-68
2023/04/11 06:09:23;;;;;;;3.77;1.20;;;8.10;93.30;;;;;;5047106;28;20444;-67
2023/04/11 06:11:50;;;;;;;4.10;1.20;;;8.10;92.40;;;;;;5048910;28;20466;-68
2023/04/11 06:14:17;;;;;;;1.50;0.97;;;8.10;92.10;;;;;;5053506;28;20447;-68
2023/04/11 06:16:45;;;;;;;2.60;1.03;;;8.10;92.00;;;;;;5057902;28;20446;-67
2023/04/11 06:19:12;;;;;;;0.80;0.60;;;8.10;91.70;;;;;;5056035;28;20479;-67
2023/04/11 06:21:38;;;;;;;3.67;1.10;;;8.20;91.80;;;;;;5057020;28;21098;-68
2023/04/11 06:24:09;;;;;;;3.30;1.00;;;8.20;91.40;;;;;;5055732;28;20977;-68
2023/04/11 06:26:35;;;;;;;2.30;1.27;;;8.20;91.70;;;;;;5056144;28;20445;-68
2023/04/11 06:29:04;;;;;;;2.70;1.10;;;8.20;91.20;;;;;;5056561;28;20444;-67
2023/04/11 06:31:31;;;;;;;3.00;0.90;;;8.30;91.10;;;;;;5055396;28;20513;-68
2023/04/11 06:34:00;;;;;;;2.77;1.50;;;8.40;91.20;;;;;;5055263;28;20450;-66
2023/04/11 06:36:26;;;;;;;2.47;1.17;;;8.50;91.00;;;;;;5055615;28;20481;-67
2023/04/11 06:38:53;;;;;;;2.63;0.80;;;8.60;90.30;;;;;;5055272;28;20525;-67
2023/04/11 06:41:20;;;;;;;2.10;1.70;;;8.60;90.70;;;;;;5055253;28;20486;-66
2023/04/11 06:43:47;;;;;;;1.80;0.90;;;8.70;90.70;;;;;;5055137;28;20497;-66
2023/04/11 06:46:14;;;;;;;2.07;1.20;;;8.80;90.30;;;;;;5054514;28;20451;-67
2023/04/11 06:48:41;;;;;;;2.20;0.90;;;8.80;90.80;;;;;;5054343;28;20547;-66
2023/04/11 06:51:09;;;;;;;3.40;1.47;;;8.90;91.00;;;;;;5054475;28;20474;-67
2023/04/11 06:53:36;;;;;;;2.57;1.40;;;8.90;90.60;;;;;;5054432;28;20457;-66
2023/04/11 06:56:03;;;;;;;2.50;1.20;;;9.10;89.30;;;;;;5056388;28;20447;-66
2023/04/11 06:58:30;;;;;;;2.37;1.00;;;9.10;88.80;;;;;;5054406;28;20482;-67
2023/04/11 07:00:56;;;;;;;1.40;0.90;;;9.10;90.10;;;;;;5055237;28;20484;-66
2023/04/11 07:03:24;;;;;;;2.03;0.97;;;9.10;88.40;;;;;;5054709;28;20897;-67
2023/04/11 07:05:51;;;;;;;1.63;0.90;;;9.10;88.90;;;;;;5055536;28;20452;-66
2023/04/11 07:08:19;;;;;;;3.73;1.10;;;9.20;90.30;;;;;;5054757;28;20456;-66
2023/04/11 07:10:46;;;;;;;3.20;1.10;;;9.30;90.10;;;;;;5053283;28;20537;-67
2023/04/11 07:13:13;;;;;;;2.60;1.23;;;9.40;89.30;;;;;;5054436;28;20458;-67
2023/04/11 07:15:40;;;;;;;1.97;1.00;;;9.50;87.40;;;;;;5054273;28;20450;-66
2023/04/11 07:18:07;;;;;;;1.97;1.20;;;9.50;86.40;;;;;;5054366;28;20543;-66
2023/04/11 07:20:33;;;;;;;2.73;0.90;;;9.50;87.10;;;;;;5054199;28;20473;-66
2023/04/11 07:23:01;;;;;;;2.57;1.13;;;9.40;85.80;;;;;;5054937;28;20449;-66
2023/04/11 07:25:32;;;;;;;2.73;1.30;;;9.40;87.60;;;;;;5055968;28;20455;-66
2023/04/11 07:27:59;;;;;;;2.50;1.00;;;9.50;88.90;;;;;;5057559;28;20483;-66
2023/04/11 07:30:25;;;;;;;2.50;1.10;;;9.70;87.60;;;;;;5055647;28;20460;-66
2023/04/11 07:32:52;;;;;;;2.80;1.00;;;9.70;85.70;;;;;;5054248;28;20953;-66
2023/04/11 07:35:20;;;;;;;5.10;1.20;;;9.70;85.10;;;;;;5056042;28;20451;-66
2023/04/11 07:37:46;;;;;;;3.17;1.17;;;9.80;85.40;;;;;;5055097;28;20455;-67
2023/04/11 07:40:14;;;;;;;2.30;1.10;;;9.80;83.70;;;;;;5055225;28;21242;-66
2023/04/11 07:42:42;;;;;;;4.20;1.40;;;9.80;84.90;;;;;;5054708;28;20829;-66
2023/04/11 07:45:09;;;;;;;3.90;1.23;;;9.90;83.40;;;;;;5055869;28;20448;-66
2023/04/11 07:47:36;;;;;;;3.73;1.23;;;10.00;82.60;;;;;;5055021;28;20945;-66
2023/04/11 07:50:03;;;;;;;4.40;1.27;;;10.00;80.00;;;;;;5055446;28;20460;-66
2023/04/11 07:52:30;;;;;;;11.07;2.33;;;10.10;82.50;;;;;;5056451;28;20524;-67
2023/04/11 07:54:57;;;;;;;3.70;1.13;;;10.40;80.90;;;;;;5053093;28;20949;-67
2023/04/11 07:57:24;;;;;;;2.70;1.57;;;10.40;79.00;;;;;;5051758;28;20478;-66
2023/04/11 07:59:52;;;;;;;3.23;1.23;;;10.30;77.00;;;;;;5041785;28;20495;-66
2023/04/11 08:02:19;;;;;;;9.43;2.15;;;10.20;77.20;;;;;;5052116;28;20459;-66
2023/04/11 08:04:45;;;;;;;11.30;1.90;;;10.10;76.90;;;;;;5050613;28;20274;-66
2023/04/11 08:07:12;;;;;;;6.63;1.50;;;10.20;75.20;;;;;;5048569;28;20439;-67
2023/04/11 08:09:41;;;;;;;5.30;1.93;;;10.30;76.80;;;;;;5052113;28;20440;-66
2023/04/11 08:12:08;;;;;;;2.50;1.30;;;10.60;77.30;;;;;;5048504;28;20451;-66
2023/04/11 08:14:35;;;;;;;4.17;1.20;;;10.80;76.50;;;;;;5048886;28;20470;-67
2023/04/11 08:17:03;;;;;;;4.10;1.60;;;10.70;72.80;;;;;;5047462;28;20454;-67
2023/04/11 08:19:31;;;;;;;2.57;1.20;;;10.60;72.70;;;;;;5052212;28;20487;-66
2023/04/11 08:21:57;;;;;;;5.20;1.10;;;10.50;72.10;;;;;;5051574;28;20451;-66
2023/04/11 08:24:24;;;;;;;5.93;2.27;;;10.50;72.80;;;;;;5052957;28;20453;-67
2023/04/11 08:26:51;;;;;;;4.70;1.60;;;10.80;73.10;;;;;;5050062;28;20445;-67
2023/04/11 08:29:18;;;;;;;5.77;1.80;;;11.10;74.10;;;;;;5050419;28;20454;-70
2023/04/11 08:31:45;;;;;;;4.87;1.20;;;11.00;71.60;;;;;;5051778;28;20545;-70
2023/04/11 08:34:14;;;;;;;3.27;1.27;;;11.30;72.20;;;;;;5049834;28;20933;-67
2023/04/11 08:36:41;;;;;;;6.50;1.50;;;11.30;68.60;;;;;;5035559;28;20456;-69
2023/04/11 08:39:08;;;;;;;4.60;1.30;;;11.30;67.60;;;;;;5031494;28;20539;-66
2023/04/11 08:41:37;;;;;;;3.10;1.30;;;11.20;66.10;;;;;;5031350;28;20475;-66
2023/04/11 08:44:04;;;;;;;4.03;1.43;;;11.20;66.00;;;;;;5031447;28;20461;-66
2023/04/11 08:46:32;;;;;;;8.80;1.90;;;11.30;65.90;;;;;;5031222;28;20452;-66
2023/04/11 08:49:00;;;;;;;3.40;1.50;;;11.50;64.60;;;;;;5031563;28;20530;-67
2023/04/11 08:51:28;;;;;;;7.43;1.67;;;11.30;62.40;;;;;;5030680;28;20472;-66
2023/04/11 08:53:59;;;;;;;3.70;1.40;;;11.10;62.50;;;;;;5030975;28;20458;-65
2023/04/11 08:56:26;;;;;;;3.47;0.87;;;11.20;62.80;;;;;;5032037;28;20455;-67
2023/04/11 08:58:52;;;;;;;4.20;1.13;;;11.20;61.50;;;;;;5032085;28;20460;-67
2023/04/11 09:01:27;;;;;;;4.43;1.47;;;11.10;61.50;;;;;;5033190;28;20870;-67
2023/04/11 09:03:55;;;;;;;2.70;0.93;;;11.20;60.70;;;;;;5036214;28;20512;-65
2023/04/11 09:06:22;;;;;;;6.83;1.57;;;11.20;60.40;;;;;;5036730;28;20830;-65
2023/04/11 09:08:50;;;;;;;3.53;1.20;;;11.40;60.70;;;;;;5037059;28;20451;-68
2023/04/11 09:11:17;;;;;;;4.50;1.33;;;11.50;59.10;;;;;;5036716;28;20478;-66
2023/04/11 09:13:44;;;;;;;5.17;1.43;;;11.50;58.90;;;;;;5035466;28;20885;-65
2023/04/11 09:16:12;;;;;;;5.73;1.10;;;11.50;58.70;;;;;;5031357;28;20465;-65
2023/04/11 09:18:41;;;;;;;4.60;1.20;;;11.60;57.70;;;;;;5030871;28;20570;-67
2023/04/11 09:21:10;;;;;;;3.13;1.30;;;11.70;57.00;;;;;;5032505;28;20862;-66
2023/04/11 09:23:38;;;;;;;1.77;1.20;;;11.90;57.60;;;;;;5031862;28;20451;-66
2023/04/11 09:26:08;;;;;;;3.27;1.20;;;12.20;57.80;;;;;;5045125;28;20471;-66
2023/04/11 09:28:41;;;;;;;4.50;1.50;;;12.40;57.30;;;;;;5044983;28;20446;-65
2023/04/11 09:31:11;;;;;;;4.50;1.40;;;12.10;56.30;;;;;;5046172;28;20466;-66
2023/04/11 09:33:38;;;;;;;2.37;1.47;;;12.00;56.50;;;;;;5047111;28;20447;-66
2023/04/11 09:36:18;;;;;;;5.70;2.17;;;12.40;57.00;;;;;;5050070;28;20527;-66
2023/04/11 09:38:45;;;;;;;3.10;1.37;;;12.70;58.20;;;;;;5048450;28;21789;-66
2023/04/11 09:41:14;;;;;;;2.83;1.00;;;13.10;56.10;;;;;;5049047;28;20514;-67
2023/04/11 09:43:53;;;;;;;5.00;1.43;;;12.90;54.10;;;;;;5048527;28;20459;-67
2023/04/11 09:46:21;;;;;;;2.70;1.30;;;12.60;54.80;;;;;;5048956;28;20540;-66
2023/04/11 09:48:48;;;;;;;7.73;1.37;;;12.50;55.90;;;;;;5050251;28;20448;-66
2023/04/11 09:51:15;;;;;;;4.87;1.23;;;12.80;54.00;;;;;;5037722;28;20467;-66
2023/04/11 09:53:42;;;;;;;4.63;1.40;;;13.30;53.70;;;;;;5049600;28;20455;-67
2023/04/11 09:56:10;;;;;;;3.70;1.60;;;13.20;52.50;;;;;;5049616;28;20825;-66
2023/04/11 09:58:39;;;;;;;4.80;1.40;;;13.10;51.90;;;;;;5049522;28;20444;-69
2023/04/11 10:01:09;;;;;;;6.80;1.90;;;13.00;52.70;;;;;;5045770;28;20483;-66
2023/04/11 10:03:37;;;;;;;4.33;1.53;;;12.80;53.10;;;;;;5049006;28;20450;-67
2023/04/11 10:06:07;;;;;;;3.63;1.77;;;13.00;54.40;;;;;;5055575;28;20456;-65
2023/04/11 10:08:36;;;;;;;2.53;1.30;;;13.10;54.30;;;;;;5033464;28;20814;-67
2023/04/11 10:11:06;;;;;;;5.67;1.57;;;13.00;51.20;;;;;;5050940;28;20460;-66
2023/04/11 10:13:44;;;;;;;4.63;1.07;;;12.80;52.70;;;;;;5049977;28;20448;-67
2023/04/11 10:16:13;;;;;;;3.93;1.27;;;12.80;53.00;;;;;;5050739;28;20459;-65
2023/04/11 10:19:27;;;;;;;5.37;1.30;;;12.40;51.20;;;;;;5050393;28;20454;-67
2023/04/11 10:21:54;;;;;;;3.73;1.67;;;12.40;53.20;;;;;;5051051;28;21054;-66
2023/04/11 10:24:22;;;;;;;2.87;1.30;;;12.40;53.20;;;;;;5050409;28;20896;-67
2023/04/11 10:26:50;;;;;;;3.53;1.43;;;12.30;52.20;;;;;;5050520;28;20458;-67
2023/04/11 10:29:47;;;;;;;4.13;1.23;;;12.20;53.20;;;;;;5050460;28;20465;-67
2023/04/11 10:32:19;;;;;;;4.33;1.30;;;12.20;51.60;;;;;;5050828;28;20447;-68
2023/04/11 10:35:30;;;;;;;3.67;1.13;;;12.20;53.90;;;;;;5049551;28;20448;-68
2023/04/11 10:37:57;;;;;;;3.77;1.43;;;12.40;54.90;;;;;;5047292;28;20459;-67
2023/04/11 10:40:24;;;;;;;2.97;1.20;;;12.30;53.80;;;;;;5045562;28;20491;-69
2023/04/11 10:42:52;;;;;;;2.23;1.20;;;12.10;54.30;;;;;;5047622;28;20458;-67
2023/04/11 10:45:23;;;;;;;3.63;1.50;;;12.40;54.90;;;;;;5052312;28;20821;-67
2023/04/11 10:48:09;;;;;;;7.73;1.53;;;12.80;56.30;;;;;;5049291;28;20871;-67
2023/04/11 10:50:39;;;;;;;3.37;1.10;;;13.20;55.20;;;;;;5053636;28;20463;-66
2023/04/11 10:53:07;;;;;;;3.43;1.10;;;13.40;54.60;;;;;;5051613;28;21269;-67
2023/04/11 10:55:46;;;;;;;5.87;0.93;;;13.60;53.30;;;;;;5051988;28;20983;-67
2023/04/11 10:58:15;;;;;;;3.57;1.10;;;13.20;51.00;;;;;;5050311;28;20460;-67
2023/04/11 11:01:25;;;;;;;2.10;1.17;;;13.20;53.60;;;;;;5050456;28;20491;-67
2023/04/11 11:03:56;;;;;;;2.23;1.20;;;12.90;52.20;;;;;;5032608;28;20441;-67
2023/04/11 11:06:25;;;;;;;2.60;1.10;;;12.80;51.30;;;;;;5033164;28;20444;-67
2023/04/11 11:08:53;;;;;;;7.07;1.63;;;12.70;52.80;;;;;;5049955;28;20436;-67
2023/04/11 11:11:20;;;;;;;7.47;1.40;;;12.80;53.20;;;;;;5050920;28;20949;-67
2023/04/11 11:13:49;;;;;;;4.23;2.57;;;13.40;52.10;;;;;;5052141;28;20912;-68
2023/04/11 11:16:17;;;;;;;7.13;2.23;;;13.50;49.80;;;;;;5045634;28;20939;-68
2023/04/11 11:18:49;;;;;;;5.20;2.07;;;13.60;48.90;;;;;;5049401;28;20451;-67
2023/04/11 11:21:20;;;;;;;5.20;1.00;;;13.60;48.70;;;;;;5050381;28;20492;-68
2023/04/11 11:23:57;;;;;;;3.37;1.60;;;13.70;47.40;;;;;;5050221;28;20864;-69
2023/04/11 11:26:38;;;;;;;3.80;1.07;;;13.70;48.60;;;;;;5049392;28;20457;-67
2023/04/11 11:29:05;;;;;;;3.27;1.30;;;14.50;47.00;;;;;;5049644;28;20438;-67
2023/04/11 11:31:37;;;;;;;3.47;1.13;;;14.30;45.50;;;;;;5050441;28;20986;-67
2023/04/11 11:34:05;;;;;;;3.03;1.30;;;14.70;46.10;;;;;;5050096;28;20475;-68
2023/04/11 11:36:34;;;;;;;5.37;1.20;;;15.10;45.30;;;;;;5050400;28;20440;-68
2023/04/11 11:39:04;;;;;;;4.43;1.37;;;15.40;44.60;;;;;;5050214;28;21054;-67
2023/04/11 11:41:31;;;;;;;2.57;1.60;;;15.40;43.80;;;;;;5048550;28;20523;-68
2023/04/11 11:43:58;;;;;;;2.47;1.20;;;15.80;44.30;;;;;;5048953;28;20813;-67
2023/04/11 11:46:25;;;;;;;4.60;1.77;;;15.60;43.10;;;;;;5048829;28;20455;-68
2023/04/11 11:48:59;;;;;;;6.60;2.53;;;15.20;45.00;;;;;;5049970;28;20458;-68
2023/04/11 11:51:26;;;;;;;5.37;1.87;;;15.40;44.50;;;;;;5047512;28;20478;-67
2023/04/11 11:54:07;;;;;;;4.37;1.20;;;15.20;44.10;;;;;;5049382;28;20460;-68
2023/04/11 11:56:34;;;;;;;4.37;1.00;;;15.00;42.40;;;;;;5049438;28;20452;-67
2023/04/11 11:59:02;;;;;;;3.67;1.07;;;14.50;42.30;;;;;;5049502;28;20460;-67
2023/04/11 12:01:29;;;;;;;3.07;1.37;;;14.00;44.70;;;;;;5049680;28;20506;-69
2023/04/11 12:03:56;;;;;;;3.60;1.20;;;14.20;45.20;;;;;;5048991;28;20454;-70
2023/04/11 12:06:25;;;;;;;4.57;1.33;;;14.50;45.20;;;;;;5051392;28;20446;-68
2023/04/11 12:08:52;;;;;;;2.33;1.07;;;14.60;43.40;;;;;;5049367;28;20464;-67
2023/04/11 12:11:21;;;;;;;3.63;1.20;;;14.20;44.40;;;;;;5048796;28;20492;-68
2023/04/11 12:13:53;;;;;;;6.60;1.40;;;13.90;45.70;;;;;;5044991;28;20480;-67
2023/04/11 12:16:22;;;;;;;3.90;1.73;;;14.30;46.40;;;;;;5049346;28;20448;-68
2023/04/11 12:18:49;;;;;;;3.90;1.30;;;14.30;44.70;;;;;;5053450;28;20458;-67
2023/04/11 12:21:16;;;;;;;4.10;1.60;;;13.70;45.30;;;;;;5054390;28;21012;-71
2023/04/11 12:23:43;;;;;;;3.97;1.43;;;13.50;47.60;;;;;;5052567;28;20449;-68
2023/04/11 12:26:10;;;;;;;4.00;1.20;;;13.90;46.30;;;;;;5051843;28;20523;-67
2023/04/11 12:28:38;;;;;;;3.37;1.43;;;14.10;45.70;;;;;;5047849;28;20494;-67
2023/04/11 12:31:05;;;;;;;5.57;1.20;;;14.20;44.00;;;;;;5046799;28;20467;-67
2023/04/11 12:33:32;;;;;;;2.43;0.90;;;14.40;42.80;;;;;;5050915;28;20542;-66
2023/04/11 12:35:58;;;;;;;1.00;0.73;;;14.50;43.60;;;;;;5051210;28;20453;-66
2023/04/11 12:38:26;;;;;;;4.97;1.27;;;14.80;44.30;;;;;;5047327;28;20451;-67
2023/04/11 12:40:53;;;;;;;5.50;1.60;;;14.90;41.80;;;;;;5050838;28;20485;-66
2023/04/11 12:43:20;;;;;;;2.50;0.90;;;15.20;41.40;;;;;;5050478;28;20448;-66
2023/04/11 12:45:48;;;;;;;5.40;1.60;;;15.50;41.70;;;;;;5050464;28;20452;-66
2023/04/11 12:48:15;;;;;;;2.73;1.10;;;15.40;41.50;;;;;;5049739;28;21006;-66
2023/04/11 12:50:42;;;;;;;2.20;1.00;;;15.60;41.80;;;;;;5045131;28;20931;-67
2023/04/11 12:53:08;;;;;;;3.87;1.30;;;15.60;40.80;;;;;;5041238;28;20439;-66
2023/04/11 12:55:35;;;;;;;3.47;1.13;;;15.40;41.10;;;;;;5050552;28;20440;-66